Terminal Aerodrome Forecast
Issued by NWS

Home | Current Version | Previous Version | Text Only | Print | Product List | Glossary On
Versions: 1 2 3 4 5 6 7 8 9 10 11 12 13 14
000
FTAK31 PAJN 022300
TAFAWG
TAF
PAWG 022324Z 0300/0324 VRB06KT P6SM SCT150
     FM030600 12004KT P6SM SCT080 BKN120
     FM031900 07005KT P6SM BKN050 BKN080
      AMD LTD TO CLD VIS AND WIND 0306/0315=

USA.gov is the U.S. government's official web portal to all federal, state and local government web resources and services.